PWSweather.com
Personal Weather Stations
Station Observations
THRCKWTHR1
Aveley, EssexGB RM154EL

AveleyEssexGB RM154EL

Lat: 51.5000552, Lon: 0.2501753000000235

Elevation: 98.5

Station Type: Oregon Scientific WMR88

www.facebook.com/thurrockweather

High Low Average
Temperature 47.8°F8.8°C 36.9°F2.7°C 41.3°F5.2°C
Dew Point 39.3°F4.1°C 33.2°F0.7°C 36.0°F2.2°C
Winds 11.5 mph 18.5 kmh 1.1 mph 1.8 kmh 5.0 mph W8.0 kmh W
Wind Gusts 14.7 mph23.7 kmh 3.3 mph5.3 kmh 9.0 mph14.5 kmh
Humidity 90% 69% 82%
Pressure 29.98 in1015.2 mb 29.92 in1013.2 mb -
Precipitation 0.00 in0.0 mm - -
Hour Temp Dew Point Humidity Winds Wind Gusts Pressure Precip Precip Rate Daily Precip Total
12:00 AM 39.4°F4.1°C 36.1°F2.3°C 88% 3.0 mph NNW4.8 kmh NNW 6.8 mph10.9 kmh 29.92 in1013.2 mb 0.00 in0.0 mm 0.00 in0.0 mm 0.00 in0.0 mm
12:05 AM 39.4°F4.1°C 36.1°F2.3°C 88% 7.6 mph NNW12.2 kmh NNW 7.6 mph12.2 kmh 29.92 in1013.2 mb 0.00 in0.0 mm 0.00 in0.0 mm 0.00 in0.0 mm
12:10 AM 39.4°F4.1°C 36.1°F2.3°C 88% 4.1 mph NW6.6 kmh NW 7.6 mph12.2 kmh 29.92 in1013.2 mb 0.00 in0.0 mm 0.00 in0.0 mm 0.00 in0.0 mm
12:15 AM 39.6°F4.2°C 36.3°F2.4°C 88% 7.9 mph NW12.7 kmh NW 7.9 mph12.7 kmh 29.92 in1013.2 mb 0.00 in0.0 mm 0.00 in0.0 mm 0.00 in0.0 mm
12:20 AM 39.4°F4.1°C 36.1°F2.3°C 88% 5.2 mph NW8.4 kmh NW 7.9 mph12.7 kmh 29.92 in1013.2 mb 0.00 in0.0 mm 0.00 in0.0 mm 0.00 in0.0 mm
12:25 AM 39.4°F4.1°C 36.1°F2.3°C 88% 3.5 mph NW5.6 kmh NW 7.9 mph12.7 kmh 29.92 in1013.2 mb 0.00 in0.0 mm 0.00 in0.0 mm 0.00 in0.0 mm
12:30 AM 39.2°F4.0°C 35.9°F2.2°C 88% 4.4 mph NW7.1 kmh NW 6.5 mph10.5 kmh 29.92 in1013.2 mb 0.00 in0.0 mm 0.00 in0.0 mm 0.00 in0.0 mm
12:35 AM 39.2°F4.0°C 36.2°F2.3°C 89% 1.4 mph NW2.3 kmh NW 6.5 mph10.5 kmh 29.92 in1013.2 mb 0.00 in0.0 mm 0.00 in0.0 mm 0.00 in0.0 mm
12:40 AM 39.0°F3.9°C 36.1°F2.3°C 89% 3.8 mph NW6.1 kmh NW 4.9 mph7.9 kmh 29.92 in1013.2 mb 0.00 in0.0 mm 0.00 in0.0 mm 0.00 in0.0 mm
12:45 AM 38.8°F3.8°C 35.9°F2.2°C 89% 2.5 mph NW4.0 kmh NW 4.9 mph7.9 kmh 29.92 in1013.2 mb 0.00 in0.0 mm 0.00 in0.0 mm 0.00 in0.0 mm
12:50 AM 38.8°F3.8°C 35.9°F2.2°C 89% 3.5 mph NW5.6 kmh NW 4.9 mph7.9 kmh 29.92 in1013.2 mb 0.00 in0.0 mm 0.00 in0.0 mm 0.00 in0.0 mm
12:55 AM 38.8°F3.8°C 35.9°F2.2°C 89% 1.1 mph NW1.8 kmh NW 4.4 mph7.1 kmh 29.92 in1013.2 mb 0.00 in0.0 mm 0.00 in0.0 mm 0.00 in0.0 mm
01:00 AM 38.7°F3.7°C 36.0°F2.2°C 90% 3.3 mph NW5.3 kmh NW 3.8 mph6.1 kmh 29.92 in1013.2 mb 0.00 in0.0 mm 0.00 in0.0 mm 0.00 in0.0 mm
01:05 AM 38.7°F3.7°C 35.7°F2.1°C 89% 3.0 mph NNW4.8 kmh NNW 3.3 mph5.3 kmh 29.92 in1013.2 mb 0.00 in0.0 mm 0.00 in0.0 mm 0.00 in0.0 mm
01:10 AM 38.7°F3.7°C 35.7°F2.1°C 89% 3.8 mph NW6.1 kmh NW 5.2 mph8.4 kmh 29.92 in1013.2 mb 0.00 in0.0 mm 0.00 in0.0 mm 0.00 in0.0 mm
01:15 AM 38.7°F3.7°C 35.7°F2.1°C 89% 4.6 mph NW7.4 kmh NW 6.5 mph10.5 kmh 29.92 in1013.2 mb 0.00 in0.0 mm 0.00 in0.0 mm 0.00 in0.0 mm
01:20 AM 38.7°F3.7°C 35.7°F2.1°C 89% 4.1 mph NW6.6 kmh NW 7.9 mph12.7 kmh 29.92 in1013.2 mb 0.00 in0.0 mm 0.00 in0.0 mm 0.00 in0.0 mm
01:25 AM 38.8°F3.8°C 35.9°F2.2°C 89% 6.0 mph NW9.7 kmh NW 7.9 mph12.7 kmh 29.92 in1013.2 mb 0.00 in0.0 mm 0.00 in0.0 mm 0.00 in0.0 mm
01:30 AM 39.0°F3.9°C 36.1°F2.3°C 89% 3.3 mph NW5.3 kmh NW 7.6 mph12.2 kmh 29.92 in1013.2 mb 0.00 in0.0 mm 0.00 in0.0 mm 0.00 in0.0 mm
01:35 AM 39.2°F4.0°C 35.9°F2.2°C 88% 2.7 mph NW4.3 kmh NW 7.6 mph12.2 kmh 29.92 in1013.2 mb 0.00 in0.0 mm 0.00 in0.0 mm 0.00 in0.0 mm
01:40 AM 39.4°F4.1°C 36.1°F2.3°C 88% 7.9 mph NW12.7 kmh NW 7.9 mph12.7 kmh 29.92 in1013.2 mb 0.00 in0.0 mm 0.00 in0.0 mm 0.00 in0.0 mm
01:45 AM 39.4°F4.1°C 36.1°F2.3°C 88% 6.5 mph NW10.5 kmh NW 9.0 mph14.5 kmh 29.92 in1013.2 mb 0.00 in0.0 mm 0.00 in0.0 mm 0.00 in0.0 mm
01:50 AM 39.4°F4.1°C 36.1°F2.3°C 88% 6.0 mph NW9.7 kmh NW 9.0 mph14.5 kmh 29.92 in1013.2 mb 0.00 in0.0 mm 0.00 in0.0 mm 0.00 in0.0 mm
01:55 AM 39.4°F4.1°C 36.1°F2.3°C 88% 7.1 mph NW11.4 kmh NW 7.4 mph11.9 kmh 29.92 in1013.2 mb 0.00 in0.0 mm 0.00 in0.0 mm 0.00 in0.0 mm
02:00 AM 39.2°F4.0°C 35.7°F2.1°C 87% 5.7 mph NW9.2 kmh NW 7.6 mph12.2 kmh 29.92 in1013.2 mb 0.00 in0.0 mm 0.00 in0.0 mm 0.00 in0.0 mm
02:05 AM 39.2°F4.0°C 35.7°F2.1°C 87% 7.4 mph NW11.9 kmh NW 7.6 mph12.2 kmh 29.92 in1013.2 mb 0.00 in0.0 mm 0.00 in0.0 mm 0.00 in0.0 mm
02:10 AM 39.0°F3.9°C 35.8°F2.1°C 88% 7.6 mph NW12.2 kmh NW 7.6 mph12.2 kmh 29.92 in1013.2 mb 0.00 in0.0 mm 0.00 in0.0 mm 0.00 in0.0 mm
02:15 AM 39.0°F3.9°C 35.5°F1.9°C 87% 4.1 mph NW6.6 kmh NW 7.9 mph12.7 kmh 29.92 in1013.2 mb 0.00 in0.0 mm 0.00 in0.0 mm 0.00 in0.0 mm
02:20 AM 39.0°F3.9°C 35.5°F1.9°C 87% 6.8 mph NW10.9 kmh NW 8.2 mph13.2 kmh 29.92 in1013.2 mb 0.00 in0.0 mm 0.00 in0.0 mm 0.00 in0.0 mm
02:25 AM 38.8°F3.8°C 35.6°F2.0°C 88% 3.5 mph N5.6 kmh N 8.2 mph13.2 kmh 29.92 in1013.2 mb 0.00 in0.0 mm 0.00 in0.0 mm 0.00 in0.0 mm
02:30 AM 38.8°F3.8°C 35.6°F2.0°C 88% 6.8 mph NNW10.9 kmh NNW 7.9 mph12.7 kmh 29.92 in1013.2 mb 0.00 in0.0 mm 0.00 in0.0 mm 0.00 in0.0 mm
02:35 AM 38.8°F3.8°C 35.6°F2.0°C 88% 5.7 mph NW9.2 kmh NW 7.9 mph12.7 kmh 29.92 in1013.2 mb 0.00 in0.0 mm 0.00 in0.0 mm 0.00 in0.0 mm
02:40 AM 38.7°F3.7°C 35.4°F1.9°C 88% 4.4 mph NNW7.1 kmh NNW 8.7 mph14.0 kmh 29.92 in1013.2 mb 0.00 in0.0 mm 0.00 in0.0 mm 0.00 in0.0 mm
02:45 AM 38.7°F3.7°C 35.1°F1.7°C 87% 7.6 mph NNW12.2 kmh NNW 8.7 mph14.0 kmh 29.92 in1013.2 mb 0.00 in0.0 mm 0.00 in0.0 mm 0.00 in0.0 mm
02:50 AM 38.5°F3.6°C 34.9°F1.6°C 87% 7.1 mph NNW11.4 kmh NNW 7.9 mph12.7 kmh 29.92 in1013.2 mb 0.00 in0.0 mm 0.00 in0.0 mm 0.00 in0.0 mm
02:55 AM 38.5°F3.6°C 34.9°F1.6°C 87% 7.4 mph NW11.9 kmh NW 7.6 mph12.2 kmh 29.92 in1013.2 mb 0.00 in0.0 mm 0.00 in0.0 mm 0.00 in0.0 mm
03:00 AM 38.3°F3.5°C 34.8°F1.6°C 87% 5.7 mph NW9.2 kmh NW 7.9 mph12.7 kmh 29.92 in1013.2 mb 0.00 in0.0 mm 0.00 in0.0 mm 0.00 in0.0 mm
03:05 AM 38.3°F3.5°C 35.1°F1.7°C 88% 4.6 mph NW7.4 kmh NW 7.9 mph12.7 kmh 29.92 in1013.2 mb 0.00 in0.0 mm 0.00 in0.0 mm 0.00 in0.0 mm
03:10 AM 38.1°F3.4°C 34.9°F1.6°C 88% 3.3 mph NW5.3 kmh NW 7.9 mph12.7 kmh 29.92 in1013.2 mb 0.00 in0.0 mm 0.00 in0.0 mm 0.00 in0.0 mm
03:15 AM 38.1°F3.4°C 34.9°F1.6°C 88% 6.0 mph NW9.7 kmh NW 7.9 mph12.7 kmh 29.92 in1013.2 mb 0.00 in0.0 mm 0.00 in0.0 mm 0.00 in0.0 mm
03:20 AM 38.1°F3.4°C 34.6°F1.4°C 87% 4.1 mph NW6.6 kmh NW 7.1 mph11.4 kmh 29.92 in1013.2 mb 0.00 in0.0 mm 0.00 in0.0 mm 0.00 in0.0 mm
03:25 AM 37.9°F3.3°C 34.4°F1.3°C 87% 9.0 mph NW14.5 kmh NW 10.6 mph17.1 kmh 29.92 in1013.2 mb 0.00 in0.0 mm 0.00 in0.0 mm 0.00 in0.0 mm
03:30 AM 37.9°F3.3°C 34.4°F1.3°C 87% 6.8 mph NW10.9 kmh NW 10.6 mph17.1 kmh 29.92 in1013.2 mb 0.00 in0.0 mm 0.00 in0.0 mm 0.00 in0.0 mm
03:35 AM 37.9°F3.3°C 34.4°F1.3°C 87% 4.1 mph NW6.6 kmh NW 9.0 mph14.5 kmh 29.92 in1013.2 mb 0.00 in0.0 mm 0.00 in0.0 mm 0.00 in0.0 mm
03:40 AM 37.8°F3.2°C 34.5°F1.4°C 88% 3.8 mph NW6.1 kmh NW 6.8 mph10.9 kmh 29.92 in1013.2 mb 0.00 in0.0 mm 0.00 in0.0 mm 0.00 in0.0 mm
03:45 AM 37.6°F3.1°C 34.3°F1.3°C 88% 5.5 mph NW8.9 kmh NW 5.5 mph8.9 kmh 29.92 in1013.2 mb 0.00 in0.0 mm 0.00 in0.0 mm 0.00 in0.0 mm
03:50 AM 37.6°F3.1°C 34.3°F1.3°C 88% 4.4 mph NW7.1 kmh NW 5.7 mph9.2 kmh 29.92 in1013.2 mb 0.00 in0.0 mm 0.00 in0.0 mm 0.00 in0.0 mm
03:55 AM 37.6°F3.1°C 34.3°F1.3°C 88% 3.8 mph NW6.1 kmh NW 5.7 mph9.2 kmh 29.92 in1013.2 mb 0.00 in0.0 mm 0.00 in0.0 mm 0.00 in0.0 mm
04:00 AM 37.6°F3.1°C 34.3°F1.3°C 88% 3.8 mph NW6.1 kmh NW 5.2 mph8.4 kmh 29.92 in1013.2 mb 0.00 in0.0 mm 0.00 in0.0 mm 0.00 in0.0 mm
04:05 AM 37.4°F3.0°C 34.2°F1.2°C 88% 4.6 mph NW7.4 kmh NW 5.2 mph8.4 kmh 29.92 in1013.2 mb 0.00 in0.0 mm 0.00 in0.0 mm 0.00 in0.0 mm
04:10 AM 37.4°F3.0°C 34.2°F1.2°C 88% 9.0 mph NW14.5 kmh NW 9.0 mph14.5 kmh 29.92 in1013.2 mb 0.00 in0.0 mm 0.00 in0.0 mm 0.00 in0.0 mm
04:15 AM 37.4°F3.0°C 34.2°F1.2°C 88% 6.0 mph NW9.7 kmh NW 9.0 mph14.5 kmh 29.92 in1013.2 mb 0.00 in0.0 mm 0.00 in0.0 mm 0.00 in0.0 mm
04:20 AM 37.4°F3.0°C 34.2°F1.2°C 88% 5.2 mph NW8.4 kmh NW 9.0 mph14.5 kmh 29.92 in1013.2 mb 0.00 in0.0 mm 0.00 in0.0 mm 0.00 in0.0 mm
04:25 AM 37.2°F2.9°C 34.0°F1.1°C 88% 7.1 mph NW11.4 kmh NW 7.4 mph11.9 kmh 29.92 in1013.2 mb 0.00 in0.0 mm 0.00 in0.0 mm 0.00 in0.0 mm
04:30 AM 37.2°F2.9°C 34.0°F1.1°C 88% 7.4 mph NW11.9 kmh NW 9.0 mph14.5 kmh 29.92 in1013.2 mb 0.00 in0.0 mm 0.00 in0.0 mm 0.00 in0.0 mm
04:35 AM 37.2°F2.9°C 34.0°F1.1°C 88% 6.5 mph NW10.5 kmh NW 9.8 mph15.8 kmh 29.92 in1013.2 mb 0.00 in0.0 mm 0.00 in0.0 mm 0.00 in0.0 mm
04:40 AM 37.0°F2.8°C 33.8°F1.0°C 88% 7.6 mph NW12.2 kmh NW 9.8 mph15.8 kmh 29.92 in1013.2 mb 0.00 in0.0 mm 0.00 in0.0 mm 0.00 in0.0 mm
04:45 AM 37.0°F2.8°C 33.8°F1.0°C 88% 10.4 mph NW16.7 kmh NW 10.4 mph16.7 kmh 29.92 in1013.2 mb 0.00 in0.0 mm 0.00 in0.0 mm 0.00 in0.0 mm
04:50 AM 37.0°F2.8°C 33.8°F1.0°C 88% 3.8 mph NW6.1 kmh NW 10.4 mph16.7 kmh 29.92 in1013.2 mb 0.00 in0.0 mm 0.00 in0.0 mm 0.00 in0.0 mm
04:55 AM 37.0°F2.8°C 33.8°F1.0°C 88% 6.8 mph NW10.9 kmh NW 10.4 mph16.7 kmh 29.92 in1013.2 mb 0.00 in0.0 mm 0.00 in0.0 mm 0.00 in0.0 mm
05:00 AM 37.0°F2.8°C 33.8°F1.0°C 88% 3.8 mph NW6.1 kmh NW 13.1 mph21.1 kmh 29.92 in1013.2 mb 0.00 in0.0 mm 0.00 in0.0 mm 0.00 in0.0 mm
05:05 AM 37.0°F2.8°C 33.8°F1.0°C 88% 9.0 mph NW14.5 kmh NW 13.1 mph21.1 kmh 29.92 in1013.2 mb 0.00 in0.0 mm 0.00 in0.0 mm 0.00 in0.0 mm
05:10 AM 36.9°F2.7°C 33.6°F0.9°C 88% 9.8 mph NW15.8 kmh NW 9.8 mph15.8 kmh 29.92 in1013.2 mb 0.00 in0.0 mm 0.00 in0.0 mm 0.00 in0.0 mm
05:15 AM 37.0°F2.8°C 33.5°F0.8°C 87% 7.6 mph NW12.2 kmh NW 9.8 mph15.8 kmh 29.92 in1013.2 mb 0.00 in0.0 mm 0.00 in0.0 mm 0.00 in0.0 mm
05:20 AM 37.0°F2.8°C 33.5°F0.8°C 87% 7.9 mph NW12.7 kmh NW 9.3 mph15.0 kmh 29.92 in1013.2 mb 0.00 in0.0 mm 0.00 in0.0 mm 0.00 in0.0 mm
05:25 AM 37.0°F2.8°C 33.5°F0.8°C 87% 6.5 mph NW10.5 kmh NW 8.7 mph14.0 kmh 29.92 in1013.2 mb 0.00 in0.0 mm 0.00 in0.0 mm 0.00 in0.0 mm
05:30 AM 37.2°F2.9°C 33.7°F0.9°C 87% 6.5 mph NW10.5 kmh NW 7.9 mph12.7 kmh 29.92 in1013.2 mb 0.00 in0.0 mm 0.00 in0.0 mm 0.00 in0.0 mm
05:35 AM 37.2°F2.9°C 33.7°F0.9°C 87% 9.0 mph NW14.5 kmh NW 9.0 mph14.5 kmh 29.92 in1013.2 mb 0.00 in0.0 mm 0.00 in0.0 mm 0.00 in0.0 mm
05:40 AM 37.4°F3.0°C 33.9°F1.1°C 87% 4.9 mph NW7.9 kmh NW 9.0 mph14.5 kmh 29.92 in1013.2 mb 0.00 in0.0 mm 0.00 in0.0 mm 0.00 in0.0 mm
05:45 AM 37.4°F3.0°C 33.9°F1.1°C 87% 5.7 mph NNW9.2 kmh NNW 9.6 mph15.4 kmh 29.92 in1013.2 mb 0.00 in0.0 mm 0.00 in0.0 mm 0.00 in0.0 mm
05:50 AM 37.4°F3.0°C 33.6°F0.9°C 86% 4.4 mph NW7.1 kmh NW 9.6 mph15.4 kmh 29.92 in1013.2 mb 0.00 in0.0 mm 0.00 in0.0 mm 0.00 in0.0 mm
05:55 AM 37.4°F3.0°C 33.6°F0.9°C 86% 9.3 mph NW15.0 kmh NW 9.8 mph15.8 kmh 29.92 in1013.2 mb 0.00 in0.0 mm 0.00 in0.0 mm 0.00 in0.0 mm
06:00 AM 37.4°F3.0°C 33.6°F0.9°C 86% 7.6 mph NNW12.2 kmh NNW 10.4 mph16.7 kmh 29.92 in1013.2 mb 0.00 in0.0 mm 0.00 in0.0 mm 0.00 in0.0 mm
06:05 AM 37.6°F3.1°C 33.8°F1.0°C 86% 7.9 mph NNW12.7 kmh NNW 10.4 mph16.7 kmh 29.92 in1013.2 mb 0.00 in0.0 mm 0.00 in0.0 mm 0.00 in0.0 mm
06:10 AM 37.6°F3.1°C 33.8°F1.0°C 86% 5.5 mph NW8.9 kmh NW 9.0 mph14.5 kmh 29.92 in1013.2 mb 0.00 in0.0 mm 0.00 in0.0 mm 0.00 in0.0 mm
06:15 AM 37.6°F3.1°C 33.8°F1.0°C 86% 8.7 mph NNW14.0 kmh NNW 9.3 mph15.0 kmh 29.92 in1013.2 mb 0.00 in0.0 mm 0.00 in0.0 mm 0.00 in0.0 mm
06:20 AM 37.4°F3.0°C 33.6°F0.9°C 86% 7.4 mph NNW11.9 kmh NNW 9.6 mph15.4 kmh 29.92 in1013.2 mb 0.00 in0.0 mm 0.00 in0.0 mm 0.00 in0.0 mm
06:25 AM 37.4°F3.0°C 33.6°F0.9°C 86% 6.8 mph NNW10.9 kmh NNW 9.6 mph15.4 kmh 29.92 in1013.2 mb 0.00 in0.0 mm 0.00 in0.0 mm 0.00 in0.0 mm
06:30 AM 37.4°F3.0°C 33.6°F0.9°C 86% 5.2 mph NNW8.4 kmh NNW 9.8 mph15.8 kmh 29.92 in1013.2 mb 0.00 in0.0 mm 0.00 in0.0 mm 0.00 in0.0 mm
06:35 AM 37.4°F3.0°C 33.6°F0.9°C 86% 7.4 mph NW11.9 kmh NW 10.6 mph17.1 kmh 29.92 in1013.2 mb 0.00 in0.0 mm 0.00 in0.0 mm 0.00 in0.0 mm
06:40 AM 37.2°F2.9°C 33.4°F0.8°C 86% 3.8 mph NW6.1 kmh NW 10.6 mph17.1 kmh 29.92 in1013.2 mb 0.00 in0.0 mm 0.00 in0.0 mm 0.00 in0.0 mm
06:45 AM 37.2°F2.9°C 33.4°F0.8°C 86% 6.0 mph NNW9.7 kmh NNW 7.9 mph12.7 kmh 29.92 in1013.2 mb 0.00 in0.0 mm 0.00 in0.0 mm 0.00 in0.0 mm
06:50 AM 37.0°F2.8°C 33.2°F0.7°C 86% 3.5 mph N5.6 kmh N 9.6 mph15.4 kmh 29.92 in1013.2 mb 0.00 in0.0 mm 0.00 in0.0 mm 0.00 in0.0 mm
06:55 AM 37.0°F2.8°C 33.2°F0.7°C 86% 3.0 mph NW4.8 kmh NW 9.6 mph15.4 kmh 29.92 in1013.2 mb 0.00 in0.0 mm 0.00 in0.0 mm 0.00 in0.0 mm
07:00 AM 36.9°F2.7°C 33.4°F0.8°C 87% 3.3 mph NW5.3 kmh NW 7.6 mph12.2 kmh 29.92 in1013.2 mb 0.00 in0.0 mm 0.00 in0.0 mm 0.00 in0.0 mm
07:05 AM 37.0°F2.8°C 33.5°F0.8°C 87% 5.7 mph NNW9.2 kmh NNW 7.6 mph12.2 kmh 29.92 in1013.2 mb 0.00 in0.0 mm 0.00 in0.0 mm 0.00 in0.0 mm
07:10 AM 37.0°F2.8°C 33.2°F0.7°C 86% 9.8 mph NNW15.8 kmh NNW 9.8 mph15.8 kmh 29.92 in1013.2 mb 0.00 in0.0 mm 0.00 in0.0 mm 0.00 in0.0 mm
07:15 AM 37.0°F2.8°C 33.2°F0.7°C 86% 6.0 mph NNW9.7 kmh NNW 9.8 mph15.8 kmh 29.92 in1013.2 mb 0.00 in0.0 mm 0.00 in0.0 mm 0.00 in0.0 mm
07:20 AM 37.0°F2.8°C 33.5°F0.8°C 87% 9.0 mph NNW14.5 kmh NNW 9.8 mph15.8 kmh 29.92 in1013.2 mb 0.00 in0.0 mm 0.00 in0.0 mm 0.00 in0.0 mm
07:25 AM 37.0°F2.8°C 33.2°F0.7°C 86% 4.1 mph NNW6.6 kmh NNW 9.0 mph14.5 kmh 29.92 in1013.2 mb 0.00 in0.0 mm 0.00 in0.0 mm 0.00 in0.0 mm
07:30 AM 37.2°F2.9°C 33.4°F0.8°C 86% 1.9 mph NNW3.1 kmh NNW 9.0 mph14.5 kmh 29.92 in1013.2 mb 0.00 in0.0 mm 0.00 in0.0 mm 0.00 in0.0 mm
07:35 AM 37.4°F3.0°C 33.6°F0.9°C 86% 4.4 mph NNW7.1 kmh NNW 7.9 mph12.7 kmh 29.92 in1013.2 mb 0.00 in0.0 mm 0.00 in0.0 mm 0.00 in0.0 mm
07:40 AM 37.6°F3.1°C 33.8°F1.0°C 86% 3.0 mph NW4.8 kmh NW 7.9 mph12.7 kmh 29.92 in1013.2 mb 0.00 in0.0 mm 0.00 in0.0 mm 0.00 in0.0 mm
07:45 AM 37.9°F3.3°C 33.8°F1.0°C 85% 3.5 mph NNW5.6 kmh NNW 9.0 mph14.5 kmh 29.92 in1013.2 mb 0.00 in0.0 mm 0.00 in0.0 mm 0.00 in0.0 mm
07:50 AM 38.3°F3.5°C 34.2°F1.2°C 85% 6.0 mph NNW9.7 kmh NNW 9.0 mph14.5 kmh 29.92 in1013.2 mb 0.00 in0.0 mm 0.00 in0.0 mm 0.00 in0.0 mm
07:55 AM 38.7°F3.7°C 34.2°F1.2°C 84% 6.0 mph NW9.7 kmh NW 7.9 mph12.7 kmh 29.92 in1013.2 mb 0.00 in0.0 mm 0.00 in0.0 mm 0.00 in0.0 mm
08:00 AM 39.6°F4.2°C 35.1°F1.7°C 84% 3.3 mph NW5.3 kmh NW 9.8 mph15.8 kmh 29.92 in1013.2 mb 0.00 in0.0 mm 0.00 in0.0 mm 0.00 in0.0 mm
08:05 AM 40.1°F4.5°C 35.4°F1.9°C 83% 3.3 mph NNW5.3 kmh NNW 9.8 mph15.8 kmh 29.92 in1013.2 mb 0.00 in0.0 mm 0.00 in0.0 mm 0.00 in0.0 mm
08:10 AM 40.5°F4.7°C 34.8°F1.6°C 80% 9.6 mph NNW15.4 kmh NNW 9.6 mph15.4 kmh 29.92 in1013.2 mb 0.00 in0.0 mm 0.00 in0.0 mm 0.00 in0.0 mm
08:15 AM 41.0°F5.0°C 35.3°F1.8°C 80% 7.1 mph NW11.4 kmh NW 9.6 mph15.4 kmh 29.92 in1013.2 mb 0.00 in0.0 mm 0.00 in0.0 mm 0.00 in0.0 mm
08:20 AM 41.5°F5.3°C 35.5°F1.9°C 79% 7.1 mph NW11.4 kmh NW 9.6 mph15.4 kmh 29.92 in1013.2 mb 0.00 in0.0 mm 0.00 in0.0 mm 0.00 in0.0 mm
08:25 AM 41.9°F5.5°C 35.2°F1.8°C 77% 3.3 mph NW5.3 kmh NW 9.6 mph15.4 kmh 29.92 in1013.2 mb 0.00 in0.0 mm 0.00 in0.0 mm 0.00 in0.0 mm
08:30 AM 42.6°F5.9°C 36.6°F2.6°C 79% 9.8 mph N15.8 kmh N 9.8 mph15.8 kmh 29.92 in1013.2 mb 0.00 in0.0 mm 0.00 in0.0 mm 0.00 in0.0 mm
08:35 AM 42.8°F6.0°C 36.1°F2.3°C 77% 4.4 mph N7.1 kmh N 12.0 mph19.3 kmh 29.92 in1013.2 mb 0.00 in0.0 mm 0.00 in0.0 mm 0.00 in0.0 mm
08:40 AM 43.0°F6.1°C 35.6°F2.0°C 75% 4.1 mph N6.6 kmh N 12.0 mph19.3 kmh 29.92 in1013.2 mb 0.00 in0.0 mm 0.00 in0.0 mm 0.00 in0.0 mm
08:45 AM 43.2°F6.2°C 35.8°F2.1°C 75% 5.7 mph NNW9.2 kmh NNW 11.5 mph18.5 kmh 29.92 in1013.2 mb 0.00 in0.0 mm 0.00 in0.0 mm 0.00 in0.0 mm
08:50 AM 43.3°F6.3°C 35.9°F2.2°C 75% 3.8 mph NNW6.1 kmh NNW 10.6 mph17.1 kmh 29.92 in1013.2 mb 0.00 in0.0 mm 0.00 in0.0 mm 0.00 in0.0 mm
08:55 AM 43.9°F6.6°C 37.1°F2.8°C 77% 4.6 mph N7.4 kmh N 10.6 mph17.1 kmh 29.92 in1013.2 mb 0.00 in0.0 mm 0.00 in0.0 mm 0.00 in0.0 mm
09:00 AM 43.7°F6.5°C 37.0°F2.8°C 77% 6.5 mph NNE10.5 kmh NNE 10.6 mph17.1 kmh 29.92 in1013.2 mb 0.00 in0.0 mm 0.00 in0.0 mm 0.00 in0.0 mm
09:05 AM 43.2°F6.2°C 35.4°F1.9°C 74% 4.9 mph NNE7.9 kmh NNE 9.8 mph15.8 kmh 29.92 in1013.2 mb 0.00 in0.0 mm 0.00 in0.0 mm 0.00 in0.0 mm
09:10 AM 43.2°F6.2°C 34.7°F1.5°C 72% 6.8 mph N10.9 kmh N 10.9 mph17.5 kmh 29.92 in1013.2 mb 0.00 in0.0 mm 0.00 in0.0 mm 0.00 in0.0 mm
09:15 AM 43.5°F6.4°C 35.4°F1.9°C 73% 4.6 mph N7.4 kmh N 10.9 mph17.5 kmh 29.92 in1013.2 mb 0.00 in0.0 mm 0.00 in0.0 mm 0.00 in0.0 mm
09:20 AM 43.7°F6.5°C 36.3°F2.4°C 75% 4.1 mph N6.6 kmh N 7.9 mph12.7 kmh 29.92 in1013.2 mb 0.00 in0.0 mm 0.00 in0.0 mm 0.00 in0.0 mm
09:25 AM 43.5°F6.4°C 36.1°F2.3°C 75% 7.6 mph N12.2 kmh N 9.8 mph15.8 kmh 29.92 in1013.2 mb 0.00 in0.0 mm 0.00 in0.0 mm 0.00 in0.0 mm
09:30 AM 43.5°F6.4°C 35.8°F2.1°C 74% 8.5 mph N13.7 kmh N 9.8 mph15.8 kmh 29.92 in1013.2 mb 0.00 in0.0 mm 0.00 in0.0 mm 0.00 in0.0 mm
09:35 AM 44.2°F6.8°C 36.5°F2.5°C 74% 3.3 mph NW5.3 kmh NW 9.3 mph15.0 kmh 29.92 in1013.2 mb 0.00 in0.0 mm 0.00 in0.0 mm 0.00 in0.0 mm
09:40 AM 44.2°F6.8°C 35.8°F2.1°C 72% 4.4 mph NW7.1 kmh NW 9.3 mph15.0 kmh 29.92 in1013.2 mb 0.00 in0.0 mm 0.00 in0.0 mm 0.00 in0.0 mm
09:45 AM 43.7°F6.5°C 36.0°F2.2°C 74% 2.7 mph NNW4.3 kmh NNW 12.6 mph20.3 kmh 29.95 in1014.2 mb 0.00 in0.0 mm 0.00 in0.0 mm 0.00 in0.0 mm
09:50 AM 43.2°F6.2°C 35.1°F1.7°C 73% 4.9 mph NNW7.9 kmh NNW 12.6 mph20.3 kmh 29.95 in1014.2 mb 0.00 in0.0 mm 0.00 in0.0 mm 0.00 in0.0 mm
09:55 AM 43.0°F6.1°C 34.6°F1.4°C 72% 4.1 mph N6.6 kmh N 12.3 mph19.8 kmh 29.95 in1014.2 mb 0.00 in0.0 mm 0.00 in0.0 mm 0.00 in0.0 mm
10:00 AM 42.8°F6.0°C 34.7°F1.5°C 73% 3.8 mph N6.1 kmh N 12.3 mph19.8 kmh 29.95 in1014.2 mb 0.00 in0.0 mm 0.00 in0.0 mm 0.00 in0.0 mm
10:05 AM 43.3°F6.3°C 35.6°F2.0°C 74% 7.9 mph NNW12.7 kmh NNW 9.6 mph15.4 kmh 29.95 in1014.2 mb 0.00 in0.0 mm 0.00 in0.0 mm 0.00 in0.0 mm
10:10 AM 43.7°F6.5°C 36.0°F2.2°C 74% 3.8 mph NW6.1 kmh NW 9.6 mph15.4 kmh 29.92 in1013.2 mb 0.00 in0.0 mm 0.00 in0.0 mm 0.00 in0.0 mm
10:15 AM 44.1°F6.7°C 36.3°F2.4°C 74% 7.9 mph NNW12.7 kmh NNW 9.8 mph15.8 kmh 29.92 in1013.2 mb 0.00 in0.0 mm 0.00 in0.0 mm 0.00 in0.0 mm
10:20 AM 44.2°F6.8°C 35.8°F2.1°C 72% 4.6 mph NW7.4 kmh NW 12.3 mph19.8 kmh 29.92 in1013.2 mb 0.00 in0.0 mm 0.00 in0.0 mm 0.00 in0.0 mm
10:25 AM 44.6°F7.0°C 36.1°F2.3°C 72% 4.9 mph NW7.9 kmh NW 12.3 mph19.8 kmh 29.92 in1013.2 mb 0.00 in0.0 mm 0.00 in0.0 mm 0.00 in0.0 mm
10:30 AM 44.6°F7.0°C 36.1°F2.3°C 72% 3.3 mph NNW5.3 kmh NNW 9.8 mph15.8 kmh 29.92 in1013.2 mb 0.00 in0.0 mm 0.00 in0.0 mm 0.00 in0.0 mm
10:35 AM 44.8°F7.1°C 37.0°F2.8°C 74% 3.3 mph N5.3 kmh N 7.9 mph12.7 kmh 29.92 in1013.2 mb 0.00 in0.0 mm 0.00 in0.0 mm 0.00 in0.0 mm
10:40 AM 45.1°F7.3°C 37.3°F2.9°C 74% 10.4 mph NNW16.7 kmh NNW 10.6 mph17.1 kmh 29.92 in1013.2 mb 0.00 in0.0 mm 0.00 in0.0 mm 0.00 in0.0 mm
10:45 AM 45.5°F7.5°C 37.7°F3.2°C 74% 7.9 mph NNW12.7 kmh NNW 10.6 mph17.1 kmh 29.92 in1013.2 mb 0.00 in0.0 mm 0.00 in0.0 mm 0.00 in0.0 mm
10:50 AM 46.0°F7.8°C 38.2°F3.4°C 74% 9.3 mph NNW15.0 kmh NNW 10.4 mph16.7 kmh 29.92 in1013.2 mb 0.00 in0.0 mm 0.00 in0.0 mm 0.00 in0.0 mm
10:55 AM 46.0°F7.8°C 38.2°F3.4°C 74% 7.9 mph N12.7 kmh N 9.3 mph15.0 kmh 29.92 in1013.2 mb 0.00 in0.0 mm 0.00 in0.0 mm 0.00 in0.0 mm
11:00 AM 46.2°F7.9°C 38.4°F3.6°C 74% 6.8 mph NNW10.9 kmh NNW 9.3 mph15.0 kmh 29.92 in1013.2 mb 0.00 in0.0 mm 0.00 in0.0 mm 0.00 in0.0 mm
11:05 AM 46.6°F8.1°C 38.0°F3.3°C 72% 4.4 mph NNW7.1 kmh NNW 7.9 mph12.7 kmh 29.92 in1013.2 mb 0.00 in0.0 mm 0.00 in0.0 mm 0.00 in0.0 mm
11:10 AM 46.8°F8.2°C 38.6°F3.7°C 73% 4.6 mph N7.4 kmh N 7.6 mph12.2 kmh 29.92 in1013.2 mb 0.00 in0.0 mm 0.00 in0.0 mm 0.00 in0.0 mm
11:15 AM 46.6°F8.1°C 38.4°F3.6°C 73% 9.6 mph NNW15.4 kmh NNW 9.6 mph15.4 kmh 29.95 in1014.2 mb 0.00 in0.0 mm 0.00 in0.0 mm 0.00 in0.0 mm
11:20 AM 46.4°F8.0°C 37.5°F3.1°C 71% 3.8 mph NW6.1 kmh NW 9.6 mph15.4 kmh 29.95 in1014.2 mb 0.00 in0.0 mm 0.00 in0.0 mm 0.00 in0.0 mm
11:25 AM 46.8°F8.2°C 38.2°F3.4°C 72% 3.8 mph NNW6.1 kmh NNW 9.6 mph15.4 kmh 29.95 in1014.2 mb 0.00 in0.0 mm 0.00 in0.0 mm 0.00 in0.0 mm
11:30 AM 46.9°F8.3°C 38.4°F3.6°C 72% 6.5 mph N10.5 kmh N 9.6 mph15.4 kmh 29.95 in1014.2 mb 0.00 in0.0 mm 0.00 in0.0 mm 0.00 in0.0 mm
11:35 AM 47.3°F8.5°C 39.1°F3.9°C 73% 3.5 mph NNW5.6 kmh NNW 7.1 mph11.4 kmh 29.95 in1014.2 mb 0.00 in0.0 mm 0.00 in0.0 mm 0.00 in0.0 mm
11:40 AM 47.7°F8.7°C 38.7°F3.7°C 71% 4.4 mph NNW7.1 kmh NNW 8.5 mph13.7 kmh 29.95 in1014.2 mb 0.00 in0.0 mm 0.00 in0.0 mm 0.00 in0.0 mm
11:45 AM 47.8°F8.8°C 39.2°F4.0°C 72% 4.4 mph N7.1 kmh N 9.0 mph14.5 kmh 29.92 in1013.2 mb 0.00 in0.0 mm 0.00 in0.0 mm 0.00 in0.0 mm
11:50 AM 47.5°F8.6°C 38.5°F3.6°C 71% 9.0 mph NNE14.5 kmh NNE 11.5 mph18.5 kmh 29.92 in1013.2 mb 0.00 in0.0 mm 0.00 in0.0 mm 0.00 in0.0 mm
11:55 AM 47.5°F8.6°C 39.3°F4.1°C 73% 9.3 mph N15.0 kmh N 11.5 mph18.5 kmh 29.92 in1013.2 mb 0.00 in0.0 mm 0.00 in0.0 mm 0.00 in0.0 mm
12:00 PM 47.8°F8.8°C 39.2°F4.0°C 72% 3.8 mph N6.1 kmh N 9.3 mph15.0 kmh 29.92 in1013.2 mb 0.00 in0.0 mm 0.00 in0.0 mm 0.00 in0.0 mm
12:05 PM 47.7°F8.7°C 38.4°F3.6°C 70% 5.2 mph NW8.4 kmh NW 13.9 mph22.4 kmh 29.92 in1013.2 mb 0.00 in0.0 mm 0.00 in0.0 mm 0.00 in0.0 mm
12:10 PM 47.5°F8.6°C 38.9°F3.8°C 72% 6.0 mph NW9.7 kmh NW 13.9 mph22.4 kmh 29.92 in1013.2 mb 0.00 in0.0 mm 0.00 in0.0 mm 0.00 in0.0 mm
12:15 PM 47.7°F8.7°C 38.7°F3.7°C 71% 9.6 mph NNW15.4 kmh NNW 10.4 mph16.7 kmh 29.92 in1013.2 mb 0.00 in0.0 mm 0.00 in0.0 mm 0.00 in0.0 mm
12:20 PM 47.3°F8.5°C 38.4°F3.6°C 71% 4.6 mph N7.4 kmh N 11.7 mph18.8 kmh 29.92 in1013.2 mb 0.00 in0.0 mm 0.00 in0.0 mm 0.00 in0.0 mm
12:25 PM 46.9°F8.3°C 37.3°F2.9°C 69% 9.6 mph NNW15.4 kmh NNW 11.7 mph18.8 kmh 29.92 in1013.2 mb 0.00 in0.0 mm 0.00 in0.0 mm 0.00 in0.0 mm
12:30 PM 46.9°F8.3°C 37.7°F3.2°C 70% 5.2 mph NW8.4 kmh NW 9.6 mph15.4 kmh 29.92 in1013.2 mb 0.00 in0.0 mm 0.00 in0.0 mm 0.00 in0.0 mm
12:35 PM 47.1°F8.4°C 38.2°F3.4°C 71% 5.2 mph NNW8.4 kmh NNW 6.8 mph10.9 kmh 29.92 in1013.2 mb 0.00 in0.0 mm 0.00 in0.0 mm 0.00 in0.0 mm
12:40 PM 46.8°F8.2°C 37.1°F2.8°C 69% 9.6 mph NW15.4 kmh NW 14.5 mph23.3 kmh 29.92 in1013.2 mb 0.00 in0.0 mm 0.00 in0.0 mm 0.00 in0.0 mm
12:45 PM 47.1°F8.4°C 37.8°F3.2°C 70% 4.4 mph NW7.1 kmh NW 14.5 mph23.3 kmh 29.92 in1013.2 mb 0.00 in0.0 mm 0.00 in0.0 mm 0.00 in0.0 mm
12:50 PM 46.9°F8.3°C 37.3°F2.9°C 69% 3.5 mph NNW5.6 kmh NNW 9.6 mph15.4 kmh 29.92 in1013.2 mb 0.00 in0.0 mm 0.00 in0.0 mm 0.00 in0.0 mm
12:55 PM 47.1°F8.4°C 38.2°F3.4°C 71% 6.8 mph N10.9 kmh N 7.9 mph12.7 kmh 29.92 in1013.2 mb 0.00 in0.0 mm 0.00 in0.0 mm 0.00 in0.0 mm
01:00 PM 46.6°F8.1°C 37.0°F2.8°C 69% 3.5 mph NNW5.6 kmh NNW 10.4 mph16.7 kmh 29.92 in1013.2 mb 0.00 in0.0 mm 0.00 in0.0 mm 0.00 in0.0 mm
01:05 PM 46.2°F7.9°C 37.0°F2.8°C 70% 9.3 mph NNW15.0 kmh NNW 10.6 mph17.1 kmh 29.92 in1013.2 mb 0.00 in0.0 mm 0.00 in0.0 mm 0.00 in0.0 mm
01:10 PM 46.2°F7.9°C 37.3°F2.9°C 71% 3.5 mph NNW5.6 kmh NNW 10.6 mph17.1 kmh 29.92 in1013.2 mb 0.00 in0.0 mm 0.00 in0.0 mm 0.00 in0.0 mm
01:15 PM 46.0°F7.8°C 36.8°F2.7°C 70% 5.2 mph NW8.4 kmh NW 9.8 mph15.8 kmh 29.92 in1013.2 mb 0.00 in0.0 mm 0.00 in0.0 mm 0.00 in0.0 mm
01:20 PM 46.2°F7.9°C 37.7°F3.2°C 72% 6.5 mph NW10.5 kmh NW 7.6 mph12.2 kmh 29.92 in1013.2 mb 0.00 in0.0 mm 0.00 in0.0 mm 0.00 in0.0 mm
01:25 PM 46.2°F7.9°C 37.7°F3.2°C 72% 3.3 mph NNW5.3 kmh NNW 7.6 mph12.2 kmh 29.92 in1013.2 mb 0.00 in0.0 mm 0.00 in0.0 mm 0.00 in0.0 mm
01:30 PM 46.2°F7.9°C 37.7°F3.2°C 72% 6.8 mph NNW10.9 kmh NNW 10.4 mph16.7 kmh 29.92 in1013.2 mb 0.00 in0.0 mm 0.00 in0.0 mm 0.00 in0.0 mm
01:35 PM 46.0°F7.8°C 37.5°F3.1°C 72% 3.3 mph N5.3 kmh N 12.3 mph19.8 kmh 29.92 in1013.2 mb 0.00 in0.0 mm 0.00 in0.0 mm 0.00 in0.0 mm
01:40 PM 45.9°F7.7°C 37.3°F2.9°C 72% 4.4 mph N7.1 kmh N 12.3 mph19.8 kmh 29.92 in1013.2 mb 0.00 in0.0 mm 0.00 in0.0 mm 0.00 in0.0 mm
01:45 PM 45.9°F7.7°C 37.3°F2.9°C 72% 4.6 mph NW7.4 kmh NW 9.0 mph14.5 kmh 29.92 in1013.2 mb 0.00 in0.0 mm 0.00 in0.0 mm 0.00 in0.0 mm
01:50 PM 45.9°F7.7°C 37.7°F3.2°C 73% 1.6 mph NW2.6 kmh NW 7.9 mph12.7 kmh 29.92 in1013.2 mb 0.00 in0.0 mm 0.00 in0.0 mm 0.00 in0.0 mm
01:55 PM 45.5°F7.5°C 36.3°F2.4°C 70% 3.3 mph NNW5.3 kmh NNW 9.8 mph15.8 kmh 29.92 in1013.2 mb 0.00 in0.0 mm 0.00 in0.0 mm 0.00 in0.0 mm
02:00 PM 45.5°F7.5°C 36.6°F2.6°C 71% 3.5 mph N5.6 kmh N 9.8 mph15.8 kmh 29.92 in1013.2 mb 0.00 in0.0 mm 0.00 in0.0 mm 0.00 in0.0 mm
02:05 PM 45.3°F7.4°C 36.8°F2.7°C 72% 4.1 mph N6.6 kmh N 9.3 mph15.0 kmh 29.92 in1013.2 mb 0.00 in0.0 mm 0.00 in0.0 mm 0.00 in0.0 mm
02:10 PM 45.5°F7.5°C 37.7°F3.2°C 74% 4.9 mph NNE7.9 kmh NNE 7.6 mph12.2 kmh 29.92 in1013.2 mb 0.00 in0.0 mm 0.00 in0.0 mm 0.00 in0.0 mm
02:15 PM 45.3°F7.4°C 37.2°F2.9°C 73% 5.2 mph N8.4 kmh N 7.6 mph12.2 kmh 29.92 in1013.2 mb 0.00 in0.0 mm 0.00 in0.0 mm 0.00 in0.0 mm
02:20 PM 45.3°F7.4°C 37.2°F2.9°C 73% 11.5 mph NW18.5 kmh NW 11.5 mph18.5 kmh 29.92 in1013.2 mb 0.00 in0.0 mm 0.00 in0.0 mm 0.00 in0.0 mm
02:25 PM 45.3°F7.4°C 36.8°F2.7°C 72% 5.2 mph NW8.4 kmh NW 11.5 mph18.5 kmh 29.92 in1013.2 mb 0.00 in0.0 mm 0.00 in0.0 mm 0.00 in0.0 mm
02:30 PM 45.5°F7.5°C 37.3°F2.9°C 73% 6.5 mph NW10.5 kmh NW 11.5 mph18.5 kmh 29.92 in1013.2 mb 0.00 in0.0 mm 0.00 in0.0 mm 0.00 in0.0 mm
02:35 PM 45.3°F7.4°C 37.2°F2.9°C 73% 6.8 mph N10.9 kmh N 9.0 mph14.5 kmh 29.92 in1013.2 mb 0.00 in0.0 mm 0.00 in0.0 mm 0.00 in0.0 mm
02:40 PM 45.3°F7.4°C 37.5°F3.1°C 74% 9.8 mph N15.8 kmh N 10.4 mph16.7 kmh 29.92 in1013.2 mb 0.00 in0.0 mm 0.00 in0.0 mm 0.00 in0.0 mm
02:45 PM 45.3°F7.4°C 37.2°F2.9°C 73% 4.9 mph NNE7.9 kmh NNE 10.4 mph16.7 kmh 29.92 in1013.2 mb 0.00 in0.0 mm 0.00 in0.0 mm 0.00 in0.0 mm
02:50 PM 45.3°F7.4°C 37.5°F3.1°C 74% 3.5 mph NNW5.6 kmh NNW 9.6 mph15.4 kmh 29.92 in1013.2 mb 0.00 in0.0 mm 0.00 in0.0 mm 0.00 in0.0 mm
02:55 PM 45.1°F7.3°C 37.3°F2.9°C 74% 4.9 mph NW7.9 kmh NW 9.6 mph15.4 kmh 29.92 in1013.2 mb 0.00 in0.0 mm 0.00 in0.0 mm 0.00 in0.0 mm
03:00 PM 45.1°F7.3°C 37.7°F3.2°C 75% 4.9 mph NW7.9 kmh NW 7.6 mph12.2 kmh 29.92 in1013.2 mb 0.00 in0.0 mm 0.00 in0.0 mm 0.00 in0.0 mm
03:05 PM 45.0°F7.2°C 37.5°F3.1°C 75% 4.9 mph WNW7.9 kmh WNW 7.9 mph12.7 kmh 29.92 in1013.2 mb 0.00 in0.0 mm 0.00 in0.0 mm 0.00 in0.0 mm
03:10 PM 44.6°F7.0°C 36.8°F2.7°C 74% 3.3 mph N5.3 kmh N 7.9 mph12.7 kmh 29.92 in1013.2 mb 0.00 in0.0 mm 0.00 in0.0 mm 0.00 in0.0 mm
03:15 PM 44.4°F6.9°C 37.0°F2.8°C 75% 4.6 mph N7.4 kmh N 9.0 mph14.5 kmh 29.92 in1013.2 mb 0.00 in0.0 mm 0.00 in0.0 mm 0.00 in0.0 mm
03:20 PM 44.4°F6.9°C 37.0°F2.8°C 75% 1.9 mph N3.1 kmh N 10.6 mph17.1 kmh 29.92 in1013.2 mb 0.00 in0.0 mm 0.00 in0.0 mm 0.00 in0.0 mm
03:25 PM 44.2°F6.8°C 36.8°F2.7°C 75% 3.8 mph NW6.1 kmh NW 10.6 mph17.1 kmh 29.92 in1013.2 mb 0.00 in0.0 mm 0.00 in0.0 mm 0.00 in0.0 mm
03:30 PM 44.2°F6.8°C 36.8°F2.7°C 75% 1.9 mph N3.1 kmh N 9.0 mph14.5 kmh 29.92 in1013.2 mb 0.00 in0.0 mm 0.00 in0.0 mm 0.00 in0.0 mm
03:35 PM 44.1°F6.7°C 36.6°F2.6°C 75% 3.0 mph N4.8 kmh N 9.3 mph15.0 kmh 29.92 in1013.2 mb 0.00 in0.0 mm 0.00 in0.0 mm 0.00 in0.0 mm
03:40 PM 44.2°F6.8°C 37.2°F2.9°C 76% 7.1 mph N11.4 kmh N 9.3 mph15.0 kmh 29.92 in1013.2 mb 0.00 in0.0 mm 0.00 in0.0 mm 0.00 in0.0 mm
03:45 PM 44.1°F6.7°C 37.0°F2.8°C 76% 4.6 mph N7.4 kmh N 7.4 mph11.9 kmh 29.92 in1013.2 mb 0.00 in0.0 mm 0.00 in0.0 mm 0.00 in0.0 mm
03:50 PM 44.1°F6.7°C 37.0°F2.8°C 76% 1.9 mph NNW3.1 kmh NNW 6.0 mph9.7 kmh 29.92 in1013.2 mb 0.00 in0.0 mm 0.00 in0.0 mm 0.00 in0.0 mm
03:55 PM 44.1°F6.7°C 37.0°F2.8°C 76% 7.6 mph N12.2 kmh N 10.4 mph16.7 kmh 29.95 in1014.2 mb 0.00 in0.0 mm 0.00 in0.0 mm 0.00 in0.0 mm
04:00 PM 43.7°F6.5°C 36.6°F2.6°C 76% 6.0 mph N9.7 kmh N 10.4 mph16.7 kmh 29.95 in1014.2 mb 0.00 in0.0 mm 0.00 in0.0 mm 0.00 in0.0 mm
04:05 PM 43.5°F6.4°C 36.5°F2.5°C 76% 9.6 mph N15.4 kmh N 9.6 mph15.4 kmh 29.95 in1014.2 mb 0.00 in0.0 mm 0.00 in0.0 mm 0.00 in0.0 mm
04:10 PM 43.3°F6.3°C 36.3°F2.4°C 76% 9.0 mph N14.5 kmh N 9.6 mph15.4 kmh 29.95 in1014.2 mb 0.00 in0.0 mm 0.00 in0.0 mm 0.00 in0.0 mm
04:15 PM 43.2°F6.2°C 36.4°F2.4°C 77% 9.0 mph N14.5 kmh N 9.0 mph14.5 kmh 29.95 in1014.2 mb 0.00 in0.0 mm 0.00 in0.0 mm 0.00 in0.0 mm
04:20 PM 43.0°F6.1°C 35.9°F2.2°C 76% 4.9 mph N7.9 kmh N 9.0 mph14.5 kmh 29.95 in1014.2 mb 0.00 in0.0 mm 0.00 in0.0 mm 0.00 in0.0 mm
04:25 PM 43.0°F6.1°C 36.3°F2.4°C 77% 4.6 mph N7.4 kmh N 6.8 mph10.9 kmh 29.95 in1014.2 mb 0.00 in0.0 mm 0.00 in0.0 mm 0.00 in0.0 mm
04:30 PM 43.0°F6.1°C 36.6°F2.6°C 78% 4.1 mph N6.6 kmh N 6.8 mph10.9 kmh 29.95 in1014.2 mb 0.00 in0.0 mm 0.00 in0.0 mm 0.00 in0.0 mm
04:35 PM 42.8°F6.0°C 36.4°F2.4°C 78% 1.9 mph N3.1 kmh N 4.6 mph7.4 kmh 29.95 in1014.2 mb 0.00 in0.0 mm 0.00 in0.0 mm 0.00 in0.0 mm
04:40 PM 42.8°F6.0°C 36.4°F2.4°C 78% 8.7 mph N14.0 kmh N 8.7 mph14.0 kmh 29.95 in1014.2 mb 0.00 in0.0 mm 0.00 in0.0 mm 0.00 in0.0 mm
04:45 PM 42.6°F5.9°C 36.6°F2.6°C 79% 4.4 mph NNE7.1 kmh NNE 8.7 mph14.0 kmh 29.95 in1014.2 mb 0.00 in0.0 mm 0.00 in0.0 mm 0.00 in0.0 mm
04:50 PM 42.4°F5.8°C 36.4°F2.4°C 79% 9.3 mph N15.0 kmh N 9.3 mph15.0 kmh 29.95 in1014.2 mb 0.00 in0.0 mm 0.00 in0.0 mm 0.00 in0.0 mm
04:55 PM 42.3°F5.7°C 36.2°F2.3°C 79% 3.5 mph N5.6 kmh N 11.7 mph18.8 kmh 29.95 in1014.2 mb 0.00 in0.0 mm 0.00 in0.0 mm 0.00 in0.0 mm
05:00 PM 42.1°F5.6°C 36.4°F2.4°C 80% 4.1 mph N6.6 kmh N 11.7 mph18.8 kmh 29.95 in1014.2 mb 0.00 in0.0 mm 0.00 in0.0 mm 0.00 in0.0 mm
05:05 PM 41.7°F5.4°C 35.7°F2.1°C 79% 4.6 mph WNW7.4 kmh WNW 12.3 mph19.8 kmh 29.95 in1014.2 mb 0.00 in0.0 mm 0.00 in0.0 mm 0.00 in0.0 mm
05:10 PM 41.7°F5.4°C 35.7°F2.1°C 79% 5.5 mph NW8.9 kmh NW 12.3 mph19.8 kmh 29.95 in1014.2 mb 0.00 in0.0 mm 0.00 in0.0 mm 0.00 in0.0 mm
05:15 PM 41.5°F5.3°C 35.8°F2.1°C 80% 3.5 mph N5.6 kmh N 7.6 mph12.2 kmh 29.95 in1014.2 mb 0.00 in0.0 mm 0.00 in0.0 mm 0.00 in0.0 mm
05:20 PM 41.2°F5.1°C 35.5°F1.9°C 80% 3.8 mph NNW6.1 kmh NNW 10.6 mph17.1 kmh 29.95 in1014.2 mb 0.00 in0.0 mm 0.00 in0.0 mm 0.00 in0.0 mm
05:25 PM 41.2°F5.1°C 35.5°F1.9°C 80% 3.3 mph NW5.3 kmh NW 10.6 mph17.1 kmh 29.95 in1014.2 mb 0.00 in0.0 mm 0.00 in0.0 mm 0.00 in0.0 mm
05:30 PM 41.0°F5.0°C 35.3°F1.8°C 80% 3.3 mph N5.3 kmh N 8.2 mph13.2 kmh 29.95 in1014.2 mb 0.00 in0.0 mm 0.00 in0.0 mm 0.00 in0.0 mm
05:35 PM 41.0°F5.0°C 35.3°F1.8°C 80% 3.0 mph N4.8 kmh N 11.7 mph18.8 kmh 29.95 in1014.2 mb 0.00 in0.0 mm 0.00 in0.0 mm 0.00 in0.0 mm
05:40 PM 40.6°F4.8°C 35.3°F1.8°C 81% 3.3 mph NW5.3 kmh NW 11.7 mph18.8 kmh 29.95 in1014.2 mb 0.00 in0.0 mm 0.00 in0.0 mm 0.00 in0.0 mm
05:45 PM 40.6°F4.8°C 35.3°F1.8°C 81% 3.3 mph NW5.3 kmh NW 7.6 mph12.2 kmh 29.98 in1015.2 mb 0.00 in0.0 mm 0.00 in0.0 mm 0.00 in0.0 mm
05:50 PM 40.6°F4.8°C 35.3°F1.8°C 81% 5.2 mph N8.4 kmh N 7.6 mph12.2 kmh 29.98 in1015.2 mb 0.00 in0.0 mm 0.00 in0.0 mm 0.00 in0.0 mm
05:55 PM 40.6°F4.8°C 35.6°F2.0°C 82% 3.8 mph NNW6.1 kmh NNW 6.8 mph10.9 kmh 29.98 in1015.2 mb 0.00 in0.0 mm 0.00 in0.0 mm 0.00 in0.0 mm
06:00 PM 40.6°F4.8°C 35.6°F2.0°C 82% 6.5 mph NW10.5 kmh NW 6.5 mph10.5 kmh 29.98 in1015.2 mb 0.00 in0.0 mm 0.00 in0.0 mm 0.00 in0.0 mm
06:05 PM 40.5°F4.7°C 35.4°F1.9°C 82% 5.2 mph NW8.4 kmh NW 8.7 mph14.0 kmh 29.98 in1015.2 mb 0.00 in0.0 mm 0.00 in0.0 mm 0.00 in0.0 mm
06:10 PM 40.3°F4.6°C 35.2°F1.8°C 82% 6.8 mph NNE10.9 kmh NNE 9.0 mph14.5 kmh 29.98 in1015.2 mb 0.00 in0.0 mm 0.00 in0.0 mm 0.00 in0.0 mm
06:15 PM 40.1°F4.5°C 35.0°F1.7°C 82% 5.2 mph NNE8.4 kmh NNE 9.0 mph14.5 kmh 29.98 in1015.2 mb 0.00 in0.0 mm 0.00 in0.0 mm 0.00 in0.0 mm
06:20 PM 40.1°F4.5°C 35.0°F1.7°C 82% 2.5 mph NNW4.0 kmh NNW 9.0 mph14.5 kmh 29.98 in1015.2 mb 0.00 in0.0 mm 0.00 in0.0 mm 0.00 in0.0 mm
06:25 PM 39.9°F4.4°C 35.2°F1.8°C 83% 3.8 mph NW6.1 kmh NW 7.9 mph12.7 kmh 29.98 in1015.2 mb 0.00 in0.0 mm 0.00 in0.0 mm 0.00 in0.0 mm
06:30 PM 39.9°F4.4°C 35.2°F1.8°C 83% 4.1 mph NNW6.6 kmh NNW 7.9 mph12.7 kmh 29.98 in1015.2 mb 0.00 in0.0 mm 0.00 in0.0 mm 0.00 in0.0 mm
06:35 PM 39.9°F4.4°C 35.2°F1.8°C 83% 4.1 mph N6.6 kmh N 7.4 mph11.9 kmh 29.98 in1015.2 mb 0.00 in0.0 mm 0.00 in0.0 mm 0.00 in0.0 mm
06:40 PM 39.7°F4.3°C 35.0°F1.7°C 83% 1.9 mph N3.1 kmh N 6.5 mph10.5 kmh 29.98 in1015.2 mb 0.00 in0.0 mm 0.00 in0.0 mm 0.00 in0.0 mm
06:45 PM 39.7°F4.3°C 35.0°F1.7°C 83% 3.5 mph NNW5.6 kmh NNW 6.5 mph10.5 kmh 29.98 in1015.2 mb 0.00 in0.0 mm 0.00 in0.0 mm 0.00 in0.0 mm
06:50 PM 39.7°F4.3°C 35.0°F1.7°C 83% 5.7 mph NNW9.2 kmh NNW 7.9 mph12.7 kmh 29.98 in1015.2 mb 0.00 in0.0 mm 0.00 in0.0 mm 0.00 in0.0 mm
06:55 PM 39.7°F4.3°C 35.0°F1.7°C 83% 3.8 mph N6.1 kmh N 7.9 mph12.7 kmh 29.98 in1015.2 mb 0.00 in0.0 mm 0.00 in0.0 mm 0.00 in0.0 mm
07:00 PM 39.7°F4.3°C 35.3°F1.8°C 84% 2.7 mph N4.3 kmh N 7.6 mph12.2 kmh 29.98 in1015.2 mb 0.00 in0.0 mm 0.00 in0.0 mm 0.00 in0.0 mm
07:05 PM 39.9°F4.4°C 35.5°F1.9°C 84% 6.8 mph NNW10.9 kmh NNW 7.6 mph12.2 kmh 29.98 in1015.2 mb 0.00 in0.0 mm 0.00 in0.0 mm 0.00 in0.0 mm
07:10 PM 39.9°F4.4°C 35.5°F1.9°C 84% 3.5 mph NNW5.6 kmh NNW 6.8 mph10.9 kmh 29.98 in1015.2 mb 0.00 in0.0 mm 0.00 in0.0 mm 0.00 in0.0 mm
07:15 PM 39.9°F4.4°C 35.5°F1.9°C 84% 1.9 mph N3.1 kmh N 4.9 mph7.9 kmh 29.98 in1015.2 mb 0.00 in0.0 mm 0.00 in0.0 mm 0.00 in0.0 mm
07:20 PM 39.9°F4.4°C 35.5°F1.9°C 84% 6.5 mph NNW10.5 kmh NNW 6.5 mph10.5 kmh 29.98 in1015.2 mb 0.00 in0.0 mm 0.00 in0.0 mm 0.00 in0.0 mm
07:25 PM 40.1°F4.5°C 36.0°F2.2°C 85% 5.5 mph N8.9 kmh N 6.5 mph10.5 kmh 29.98 in1015.2 mb 0.00 in0.0 mm 0.00 in0.0 mm 0.00 in0.0 mm
07:30 PM 40.3°F4.6°C 36.1°F2.3°C 85% 3.8 mph NNW6.1 kmh NNW 6.5 mph10.5 kmh 29.98 in1015.2 mb 0.00 in0.0 mm 0.00 in0.0 mm 0.00 in0.0 mm
07:35 PM 40.3°F4.6°C 36.1°F2.3°C 85% 4.1 mph NNW6.6 kmh NNW 5.7 mph9.2 kmh 29.98 in1015.2 mb 0.00 in0.0 mm 0.00 in0.0 mm 0.00 in0.0 mm
07:40 PM 40.3°F4.6°C 36.1°F2.3°C 85% 3.8 mph NNW6.1 kmh NNW 5.7 mph9.2 kmh 29.98 in1015.2 mb 0.00 in0.0 mm 0.00 in0.0 mm 0.00 in0.0 mm
07:45 PM 40.5°F4.7°C 36.3°F2.4°C 85% 3.0 mph N4.8 kmh N 4.6 mph7.4 kmh 29.98 in1015.2 mb 0.00 in0.0 mm 0.00 in0.0 mm 0.00 in0.0 mm
07:50 PM 40.5°F4.7°C 36.3°F2.4°C 85% 4.9 mph NNW7.9 kmh NNW 5.2 mph8.4 kmh 29.98 in1015.2 mb 0.00 in0.0 mm 0.00 in0.0 mm 0.00 in0.0 mm
07:55 PM 40.5°F4.7°C 36.3°F2.4°C 85% 3.3 mph N5.3 kmh N 6.0 mph9.7 kmh 29.98 in1015.2 mb 0.00 in0.0 mm 0.00 in0.0 mm 0.00 in0.0 mm
08:00 PM 40.6°F4.8°C 36.5°F2.5°C 85% 1.6 mph NNE2.6 kmh NNE 6.0 mph9.7 kmh 29.98 in1015.2 mb 0.00 in0.0 mm 0.00 in0.0 mm 0.00 in0.0 mm
08:05 PM 40.6°F4.8°C 36.5°F2.5°C 85% 2.7 mph N4.3 kmh N 7.4 mph11.9 kmh 29.98 in1015.2 mb 0.00 in0.0 mm 0.00 in0.0 mm 0.00 in0.0 mm
08:10 PM 40.8°F4.9°C 36.7°F2.6°C 85% 3.3 mph N5.3 kmh N 7.4 mph11.9 kmh 29.98 in1015.2 mb 0.00 in0.0 mm 0.00 in0.0 mm 0.00 in0.0 mm
08:15 PM 41.0°F5.0°C 36.5°F2.5°C 84% 3.8 mph N6.1 kmh N 5.7 mph9.2 kmh 29.98 in1015.2 mb 0.00 in0.0 mm 0.00 in0.0 mm 0.00 in0.0 mm
08:20 PM 41.2°F5.1°C 36.7°F2.6°C 84% 3.5 mph NNE5.6 kmh NNE 14.7 mph23.7 kmh 29.98 in1015.2 mb 0.00 in0.0 mm 0.00 in0.0 mm 0.00 in0.0 mm
08:25 PM 41.2°F5.1°C 36.7°F2.6°C 84% 3.5 mph NNE5.6 kmh NNE 14.7 mph23.7 kmh 29.98 in1015.2 mb 0.00 in0.0 mm 0.00 in0.0 mm 0.00 in0.0 mm
08:30 PM 41.4°F5.2°C 36.9°F2.7°C 84% 4.1 mph N6.6 kmh N 14.7 mph23.7 kmh 29.98 in1015.2 mb 0.00 in0.0 mm 0.00 in0.0 mm 0.00 in0.0 mm
08:35 PM 41.5°F5.3°C 37.1°F2.8°C 84% 3.5 mph N5.6 kmh N 12.0 mph19.3 kmh 29.98 in1015.2 mb 0.00 in0.0 mm 0.00 in0.0 mm 0.00 in0.0 mm
08:40 PM 41.5°F5.3°C 37.1°F2.8°C 84% 4.4 mph N7.1 kmh N 7.4 mph11.9 kmh 29.98 in1015.2 mb 0.00 in0.0 mm 0.00 in0.0 mm 0.00 in0.0 mm
08:45 PM 41.5°F5.3°C 37.1°F2.8°C 84% 7.4 mph N11.9 kmh N 7.4 mph11.9 kmh 29.98 in1015.2 mb 0.00 in0.0 mm 0.00 in0.0 mm 0.00 in0.0 mm
08:50 PM 41.5°F5.3°C 37.1°F2.8°C 84% 4.1 mph N6.6 kmh N 7.4 mph11.9 kmh 29.98 in1015.2 mb 0.00 in0.0 mm 0.00 in0.0 mm 0.00 in0.0 mm
08:55 PM 41.5°F5.3°C 37.4°F3.0°C 85% 6.8 mph N10.9 kmh N 8.2 mph13.2 kmh 29.98 in1015.2 mb 0.00 in0.0 mm 0.00 in0.0 mm 0.00 in0.0 mm
09:00 PM 41.4°F5.2°C 37.2°F2.9°C 85% 5.7 mph N9.2 kmh N 8.2 mph13.2 kmh 29.98 in1015.2 mb 0.00 in0.0 mm 0.00 in0.0 mm 0.00 in0.0 mm
09:05 PM 41.2°F5.1°C 37.0°F2.8°C 85% 3.8 mph NNW6.1 kmh NNW 7.9 mph12.7 kmh 29.98 in1015.2 mb 0.00 in0.0 mm 0.00 in0.0 mm 0.00 in0.0 mm
09:10 PM 41.2°F5.1°C 37.0°F2.8°C 85% 6.5 mph N10.5 kmh N 9.0 mph14.5 kmh 29.98 in1015.2 mb 0.00 in0.0 mm 0.00 in0.0 mm 0.00 in0.0 mm
09:15 PM 41.2°F5.1°C 37.0°F2.8°C 85% 5.5 mph N8.9 kmh N 9.0 mph14.5 kmh 29.98 in1015.2 mb 0.00 in0.0 mm 0.00 in0.0 mm 0.00 in0.0 mm
09:20 PM 41.0°F5.0°C 36.8°F2.7°C 85% 2.5 mph NNE4.0 kmh NNE 7.1 mph11.4 kmh 29.98 in1015.2 mb 0.00 in0.0 mm 0.00 in0.0 mm 0.00 in0.0 mm
09:25 PM 41.0°F5.0°C 36.8°F2.7°C 85% 4.6 mph NNE7.4 kmh NNE 7.4 mph11.9 kmh 29.98 in1015.2 mb 0.00 in0.0 mm 0.00 in0.0 mm 0.00 in0.0 mm
09:30 PM 40.8°F4.9°C 37.0°F2.8°C 86% 3.8 mph N6.1 kmh N 7.4 mph11.9 kmh 29.98 in1015.2 mb 0.00 in0.0 mm 0.00 in0.0 mm 0.00 in0.0 mm
09:35 PM 40.8°F4.9°C 37.0°F2.8°C 86% 4.9 mph N7.9 kmh N 7.6 mph12.2 kmh 29.98 in1015.2 mb 0.00 in0.0 mm 0.00 in0.0 mm 0.00 in0.0 mm
09:40 PM 40.8°F4.9°C 37.0°F2.8°C 86% 2.5 mph NNW4.0 kmh NNW 7.6 mph12.2 kmh 29.98 in1015.2 mb 0.00 in0.0 mm 0.00 in0.0 mm 0.00 in0.0 mm
09:45 PM 40.8°F4.9°C 37.0°F2.8°C 86% 4.4 mph N7.1 kmh N 7.6 mph12.2 kmh 29.98 in1015.2 mb 0.00 in0.0 mm 0.00 in0.0 mm 0.00 in0.0 mm
09:50 PM 41.0°F5.0°C 37.1°F2.8°C 86% 4.1 mph N6.6 kmh N 4.6 mph7.4 kmh 29.98 in1015.2 mb 0.00 in0.0 mm 0.00 in0.0 mm 0.00 in0.0 mm
09:55 PM 40.8°F4.9°C 37.0°F2.8°C 86% 6.0 mph N9.7 kmh N 6.0 mph9.7 kmh 29.98 in1015.2 mb 0.00 in0.0 mm 0.00 in0.0 mm 0.00 in0.0 mm
10:00 PM 40.8°F4.9°C 37.0°F2.8°C 86% 3.0 mph N4.8 kmh N 6.0 mph9.7 kmh 29.98 in1015.2 mb 0.00 in0.0 mm 0.00 in0.0 mm 0.00 in0.0 mm
10:05 PM 40.8°F4.9°C 37.3°F2.9°C 87% 5.5 mph N8.9 kmh N 6.8 mph10.9 kmh 29.98 in1015.2 mb 0.00 in0.0 mm 0.00 in0.0 mm 0.00 in0.0 mm
10:10 PM 40.6°F4.8°C 37.1°F2.8°C 87% 3.0 mph N4.8 kmh N 10.4 mph16.7 kmh 29.98 in1015.2 mb 0.00 in0.0 mm 0.00 in0.0 mm 0.00 in0.0 mm
10:15 PM 40.6°F4.8°C 37.1°F2.8°C 87% 1.9 mph N3.1 kmh N 10.4 mph16.7 kmh 29.98 in1015.2 mb 0.00 in0.0 mm 0.00 in0.0 mm 0.00 in0.0 mm
10:20 PM 40.5°F4.7°C 36.9°F2.7°C 87% 6.5 mph NNW10.5 kmh NNW 6.5 mph10.5 kmh 29.98 in1015.2 mb 0.00 in0.0 mm 0.00 in0.0 mm 0.00 in0.0 mm
10:25 PM 40.5°F4.7°C 36.9°F2.7°C 87% 5.5 mph N8.9 kmh N 6.5 mph10.5 kmh 29.98 in1015.2 mb 0.00 in0.0 mm 0.00 in0.0 mm 0.00 in0.0 mm
10:30 PM 40.5°F4.7°C 37.2°F2.9°C 88% 4.4 mph N7.1 kmh N 10.9 mph17.5 kmh 29.98 in1015.2 mb 0.00 in0.0 mm 0.00 in0.0 mm 0.00 in0.0 mm
10:35 PM 40.5°F4.7°C 37.2°F2.9°C 88% 6.5 mph NNE10.5 kmh NNE 10.9 mph17.5 kmh 29.98 in1015.2 mb 0.00 in0.0 mm 0.00 in0.0 mm 0.00 in0.0 mm
10:40 PM 40.6°F4.8°C 37.4°F3.0°C 88% 3.8 mph NNE6.1 kmh NNE 7.9 mph12.7 kmh 29.98 in1015.2 mb 0.00 in0.0 mm 0.00 in0.0 mm 0.00 in0.0 mm
10:45 PM 40.6°F4.8°C 37.4°F3.0°C 88% 4.6 mph N7.4 kmh N 6.0 mph9.7 kmh 29.98 in1015.2 mb 0.00 in0.0 mm 0.00 in0.0 mm 0.00 in0.0 mm
10:50 PM 40.6°F4.8°C 37.4°F3.0°C 88% 5.7 mph NNW9.2 kmh NNW 9.6 mph15.4 kmh 29.98 in1015.2 mb 0.00 in0.0 mm 0.00 in0.0 mm 0.00 in0.0 mm
10:55 PM 40.8°F4.9°C 37.8°F3.2°C 89% 3.0 mph N4.8 kmh N 9.6 mph15.4 kmh 29.98 in1015.2 mb 0.00 in0.0 mm 0.00 in0.0 mm 0.00 in0.0 mm
11:00 PM 40.8°F4.9°C 37.8°F3.2°C 89% 1.6 mph NNW2.6 kmh NNW 7.6 mph12.2 kmh 29.98 in1015.2 mb 0.00 in0.0 mm 0.00 in0.0 mm 0.00 in0.0 mm
11:05 PM 40.8°F4.9°C 38.1°F3.4°C 90% 7.4 mph NNW11.9 kmh NNW 7.4 mph11.9 kmh 29.98 in1015.2 mb 0.00 in0.0 mm 0.00 in0.0 mm 0.00 in0.0 mm
11:10 PM 41.0°F5.0°C 38.0°F3.3°C 89% 9.0 mph N14.5 kmh N 9.0 mph14.5 kmh 29.98 in1015.2 mb 0.00 in0.0 mm 0.00 in0.0 mm 0.00 in0.0 mm
11:15 PM 41.0°F5.0°C 38.3°F3.5°C 90% 3.8 mph N6.1 kmh N 9.0 mph14.5 kmh 29.98 in1015.2 mb 0.00 in0.0 mm 0.00 in0.0 mm 0.00 in0.0 mm
11:20 PM 41.0°F5.0°C 38.0°F3.3°C 89% 3.3 mph N5.3 kmh N 9.0 mph14.5 kmh 29.98 in1015.2 mb 0.00 in0.0 mm 0.00 in0.0 mm 0.00 in0.0 mm
11:25 PM 41.2°F5.1°C 38.2°F3.4°C 89% 9.0 mph N14.5 kmh N 9.0 mph14.5 kmh 29.98 in1015.2 mb 0.00 in0.0 mm 0.00 in0.0 mm 0.00 in0.0 mm
11:30 PM 41.2°F5.1°C 38.5°F3.6°C 90% 4.4 mph N7.1 kmh N 9.0 mph14.5 kmh 29.98 in1015.2 mb 0.00 in0.0 mm 0.00 in0.0 mm 0.00 in0.0 mm
11:35 PM 41.2°F5.1°C 38.2°F3.4°C 89% 3.8 mph N6.1 kmh N 9.0 mph14.5 kmh 29.98 in1015.2 mb 0.00 in0.0 mm 0.00 in0.0 mm 0.00 in0.0 mm
11:40 PM 41.2°F5.1°C 38.2°F3.4°C 89% 3.0 mph N4.8 kmh N 6.0 mph9.7 kmh 29.98 in1015.2 mb 0.00 in0.0 mm 0.00 in0.0 mm 0.00 in0.0 mm
11:45 PM 41.2°F5.1°C 38.2°F3.4°C 89% 4.9 mph NNE7.9 kmh NNE 10.6 mph17.1 kmh 29.98 in1015.2 mb 0.00 in0.0 mm 0.00 in0.0 mm 0.00 in0.0 mm
11:50 PM 41.0°F5.0°C 38.0°F3.3°C 89% 5.7 mph N9.2 kmh N 10.6 mph17.1 kmh 29.98 in1015.2 mb 0.00 in0.0 mm 0.00 in0.0 mm 0.00 in0.0 mm
11:55 PM 41.0°F5.0°C 38.3°F3.5°C 90% 6.8 mph N10.9 kmh N 6.8 mph10.9 kmh 29.98 in1015.2 mb 0.00 in0.0 mm 0.00 in0.0 mm 0.00 in0.0 mm